Terminal Aerodrome Forecast
Issued by NWS

Home | Current Version | Previous Version | Graphics & Text | Print | Product List | Glossary On
Versions: 1 2 3 4 5 6 7 8 9 10 11 12 13 14 15 16 17 18 19 20 21 22 23 24 25 26 27 28 29 30 31 32 33 34 35 36
940
FTUS43 KGRB 262052 AAB
TAFATW
TAF AMD
KATW 262052Z 2621/2718 21014G20KT P6SM BKN025 OVC050
      TEMPO 2621/2624 6SM -SHRA BR BKN015 OVC025
     FM270000 23006KT P6SM -SHRA SCT020 OVC050
     FM270300 28005KT 6SM SHRA OVC020
     FM270700 32007KT 4SM SHRA OVC008
     FM271700 27010KT 6SM -SHRA OVC010=

USA.gov is the U.S. government's official web portal to all federal, state and local government web resources and services.